createdAt,value
2018-08-17T00:02:13.903Z,21.70
2018-08-17T00:04:42.217Z,21.70
2018-08-17T00:07:10.416Z,21.70
2018-08-17T00:09:39.243Z,21.60
2018-08-17T00:12:07.491Z,21.60
2018-08-17T00:14:36.042Z,21.50
2018-08-17T00:17:04.599Z,21.50
2018-08-17T00:19:32.929Z,21.50
2018-08-17T00:22:01.451Z,21.40
2018-08-17T00:24:30.439Z,21.40
2018-08-17T00:26:58.681Z,21.40
2018-08-17T00:29:27.515Z,21.30
2018-08-17T00:31:56.126Z,21.30
2018-08-17T00:34:24.290Z,21.20
2018-08-17T00:36:52.755Z,21.20
2018-08-17T00:39:21.630Z,21.20
2018-08-17T00:41:49.685Z,21.20
2018-08-17T00:44:18.228Z,21.20
2018-08-17T00:46:46.700Z,21.20
2018-08-17T00:49:15.454Z,21.10
2018-08-17T00:51:44.259Z,21.10
2018-08-17T00:54:13.013Z,21.10
2018-08-17T00:56:41.794Z,21.10
2018-08-17T00:59:10.228Z,21.10
2018-08-17T01:01:38.386Z,21.00
2018-08-17T01:04:06.495Z,20.90
2018-08-17T01:06:34.925Z,20.80
2018-08-17T01:09:04.804Z,20.80
2018-08-17T01:11:33.643Z,20.80
2018-08-17T01:14:02.062Z,20.70
2018-08-17T01:16:30.145Z,20.70
2018-08-17T01:18:58.243Z,20.70
2018-08-17T01:21:26.998Z,20.60
2018-08-17T01:23:55.412Z,20.60
2018-08-17T01:26:25.111Z,20.60
2018-08-17T01:28:54.174Z,20.60
2018-08-17T01:31:22.443Z,20.60
2018-08-17T01:33:51.230Z,20.60
2018-08-17T01:36:19.656Z,20.60
2018-08-17T01:38:48.476Z,20.60
2018-08-17T01:41:17.222Z,20.60
2018-08-17T01:43:45.972Z,20.60
2018-08-17T01:46:14.810Z,20.60
2018-08-17T01:48:43.777Z,20.60
2018-08-17T01:51:12.575Z,20.50
2018-08-17T01:53:41.023Z,20.60
2018-08-17T01:56:09.799Z,20.50
2018-08-17T01:58:38.618Z,20.40
2018-08-17T02:01:07.400Z,20.40
2018-08-17T02:03:36.155Z,20.30
2018-08-17T02:06:04.318Z,20.30
2018-08-17T02:08:32.835Z,20.30
2018-08-17T02:11:01.333Z,20.20
2018-08-17T02:13:30.179Z,20.20
2018-08-17T02:15:58.970Z,20.20
2018-08-17T02:18:27.785Z,20.20
2018-08-17T02:20:56.246Z,20.20
2018-08-17T02:23:25.001Z,20.10
2018-08-17T02:25:53.792Z,20.20
2018-08-17T02:28:23.770Z,20.10
2018-08-17T02:30:52.475Z,20.00
2018-08-17T02:33:20.943Z,19.90
2018-08-17T02:35:49.388Z,19.80
2018-08-17T02:38:18.020Z,19.80
2018-08-17T02:40:46.789Z,19.90
2018-08-17T02:43:15.285Z,19.90
2018-08-17T02:45:43.792Z,19.80
2018-08-17T02:48:12.631Z,19.60
2018-08-17T02:50:41.408Z,19.60
2018-08-17T02:53:10.093Z,19.60
2018-08-17T02:55:38.900Z,19.60
2018-08-17T02:58:07.305Z,19.60
2018-08-17T03:00:36.040Z,19.70
2018-08-17T03:03:04.443Z,19.70
2018-08-17T03:05:32.920Z,19.70
2018-08-17T03:08:01.650Z,19.70
2018-08-17T03:10:30.087Z,19.70
2018-08-17T03:12:58.813Z,19.60
2018-08-17T03:15:27.247Z,19.70
2018-08-17T03:17:55.959Z,19.70
2018-08-17T03:20:24.762Z,19.60
2018-08-17T03:22:53.478Z,19.60
2018-08-17T03:25:21.570Z,19.60
2018-08-17T03:27:49.766Z,19.60
2018-08-17T03:30:17.928Z,19.60
2018-08-17T03:32:46.389Z,19.50
2018-08-17T03:35:14.493Z,19.50
2018-08-17T03:37:43.294Z,19.40
2018-08-17T03:40:12.082Z,19.40
2018-08-17T03:42:40.607Z,19.40
2018-08-17T03:45:09.097Z,19.40
2018-08-17T03:47:37.885Z,19.40
2018-08-17T03:50:06.507Z,19.40
2018-08-17T03:52:35.385Z,19.30
2018-08-17T03:55:03.515Z,19.30
2018-08-17T03:57:32.235Z,19.30
2018-08-17T04:00:01.005Z,19.30
2018-08-17T04:02:29.706Z,19.30
2018-08-17T04:04:58.395Z,19.30
2018-08-17T04:07:27.259Z,19.20
2018-08-17T04:09:55.794Z,19.10
2018-08-17T04:12:24.594Z,19.20
2018-08-17T04:14:53.084Z,19.20
2018-08-17T04:17:21.916Z,19.10
2018-08-17T04:19:50.699Z,19.10
2018-08-17T04:22:19.957Z,19.00
2018-08-17T04:24:48.706Z,19.00
2018-08-17T04:27:17.169Z,19.00
2018-08-17T04:29:46.042Z,19.00
2018-08-17T04:32:14.841Z,19.10
2018-08-17T04:34:43.275Z,19.20
2018-08-17T04:37:12.011Z,19.20
2018-08-17T04:39:40.746Z,19.20
2018-08-17T04:42:09.134Z,19.20
2018-08-17T04:44:37.643Z,19.30
2018-08-17T04:47:06.420Z,19.30
2018-08-17T04:49:35.296Z,19.30
2018-08-17T04:52:03.661Z,19.40
2018-08-17T04:54:32.417Z,19.50
2018-08-17T04:57:00.822Z,19.50
2018-08-17T04:59:29.730Z,19.50
2018-08-17T05:01:58.504Z,19.60
2018-08-17T05:04:27.228Z,19.60
2018-08-17T05:06:55.714Z,19.90
2018-08-17T05:09:24.514Z,20.20
2018-08-17T05:11:53.126Z,20.40
2018-08-17T05:14:21.592Z,20.60
2018-08-17T05:16:50.631Z,20.80
2018-08-17T05:19:19.088Z,21.10
2018-08-17T05:21:47.860Z,21.20
2018-08-17T05:24:16.974Z,21.20
2018-08-17T05:26:45.811Z,21.30
2018-08-17T05:29:14.322Z,21.40
2018-08-17T05:31:42.730Z,21.50
2018-08-17T05:34:10.858Z,21.80
2018-08-17T05:36:39.566Z,22.10
2018-08-17T05:39:08.674Z,22.20
2018-08-17T05:41:37.500Z,22.50
2018-08-17T05:44:05.637Z,22.60
2018-08-17T05:46:34.080Z,22.90
2018-08-17T05:49:02.578Z,22.90
2018-08-17T05:51:31.174Z,23.00
2018-08-17T05:53:59.998Z,23.30
2018-08-17T05:56:28.903Z,23.70
2018-08-17T05:58:57.491Z,23.90
2018-08-17T06:01:25.737Z,24.00
2018-08-17T06:03:54.155Z,24.00
2018-08-17T06:06:22.255Z,23.80
2018-08-17T06:08:50.779Z,24.00
2018-08-17T06:11:19.892Z,24.20
2018-08-17T06:13:48.084Z,24.60
2018-08-17T06:16:16.539Z,24.80
2018-08-17T06:18:44.650Z,25.20
2018-08-17T06:21:13.077Z,25.10
2018-08-17T06:23:41.493Z,25.40
2018-08-17T06:26:09.923Z,25.60
2018-08-17T06:28:38.693Z,25.90
2018-08-17T06:31:07.504Z,25.80
2018-08-17T06:33:36.022Z,25.60
2018-08-17T06:36:04.241Z,25.70
2018-08-17T06:38:32.868Z,25.80
2018-08-17T06:41:01.287Z,26.30
2018-08-17T06:43:29.489Z,26.40
2018-08-17T06:45:57.570Z,26.70
2018-08-17T06:48:26.037Z,26.90
2018-08-17T06:50:54.352Z,27.20
2018-08-17T06:53:22.923Z,27.50
2018-08-17T06:55:51.726Z,27.90
2018-08-17T06:58:20.478Z,28.00
2018-08-17T07:00:48.985Z,28.00
2018-08-17T07:03:17.801Z,28.00
2018-08-17T07:05:46.290Z,28.30
2018-08-17T07:08:14.400Z,28.60
2018-08-17T07:10:42.516Z,28.50
2018-08-17T07:13:10.981Z,28.60
2018-08-17T07:15:39.427Z,28.70
2018-08-17T07:18:07.876Z,28.90
2018-08-17T07:20:36.003Z,29.10
2018-08-17T07:23:04.458Z,29.50
2018-08-17T07:25:32.586Z,29.50
2018-08-17T07:28:01.338Z,29.20
2018-08-17T07:30:30.299Z,29.50
2018-08-17T07:32:59.081Z,29.30
2018-08-17T07:35:27.568Z,29.90
2018-08-17T07:37:56.048Z,30.40
2018-08-17T07:40:24.911Z,30.50
2018-08-17T07:42:53.629Z,30.60
2018-08-17T07:45:22.077Z,31.20
2018-08-17T07:47:50.559Z,31.50
2018-08-17T07:50:20.340Z,31.60
2018-08-17T07:52:49.213Z,31.80
2018-08-17T07:55:17.993Z,31.80
2018-08-17T07:57:46.993Z,31.80
2018-08-17T08:00:15.430Z,31.90
2018-08-17T08:02:43.582Z,32.20
2018-08-17T08:05:12.455Z,31.60
2018-08-17T08:07:40.921Z,32.10
2018-08-17T08:10:09.888Z,32.40
2018-08-17T08:12:38.552Z,32.80
2018-08-17T08:15:06.860Z,32.90
2018-08-17T08:17:35.806Z,32.60
2018-08-17T08:20:15.591Z,32.70
2018-08-17T08:22:44.399Z,33.00
2018-08-17T08:25:13.161Z,33.40
2018-08-17T08:27:41.705Z,33.50
2018-08-17T08:30:09.780Z,33.60
2018-08-17T08:32:37.859Z,34.00
2018-08-17T08:35:07.087Z,34.30
2018-08-17T08:37:35.553Z,34.40
2018-08-17T08:40:03.741Z,34.70
2018-08-17T08:42:32.277Z,34.20
2018-08-17T08:45:01.034Z,34.40
2018-08-17T08:47:29.464Z,34.50
2018-08-17T08:49:57.501Z,33.90
2018-08-17T08:52:26.263Z,33.50
2018-08-17T08:54:54.503Z,33.90
2018-08-17T08:57:23.257Z,34.70
2018-08-17T08:59:51.728Z,34.80
2018-08-17T09:02:20.501Z,35.00
2018-08-17T09:04:49.279Z,34.80
2018-08-17T09:07:17.360Z,35.60
2018-08-17T09:09:45.743Z,35.70
2018-08-17T09:12:14.516Z,35.40
2018-08-17T09:14:42.995Z,35.90
2018-08-17T09:17:11.753Z,36.00
2018-08-17T09:19:40.182Z,36.20
2018-08-17T09:22:08.997Z,36.30
2018-08-17T09:24:37.238Z,36.30
2018-08-17T09:27:06.298Z,35.90
2018-08-17T09:29:35.176Z,36.00
2018-08-17T09:32:03.600Z,36.70
2018-08-17T09:34:32.446Z,37.40
2018-08-17T09:37:00.947Z,37.50
2018-08-17T09:39:29.638Z,37.60
2018-08-17T09:41:58.593Z,37.60
2018-08-17T09:44:27.249Z,37.70
2018-08-17T09:46:55.678Z,37.80
2018-08-17T09:49:24.168Z,37.00
2018-08-17T09:51:52.921Z,37.10
2018-08-17T09:54:21.665Z,36.90
2018-08-17T09:56:50.422Z,37.20
2018-08-17T09:59:19.224Z,37.70
2018-08-17T10:01:52.996Z,37.60
2018-08-17T10:04:26.931Z,38.10
2018-08-17T10:07:01.310Z,38.30
2018-08-17T10:09:35.562Z,38.50
2018-08-17T10:12:04.191Z,38.80
2018-08-17T10:14:33.000Z,38.50
2018-08-17T10:17:01.843Z,38.30
2018-08-17T10:19:30.668Z,37.90
2018-08-17T10:21:59.283Z,38.00
2018-08-17T10:24:27.782Z,38.50
2018-08-17T10:26:56.230Z,38.70
2018-08-17T10:29:24.750Z,38.40
2018-08-17T10:31:53.201Z,38.90
2018-08-17T10:34:21.938Z,38.70
2018-08-17T10:36:50.393Z,39.20
2018-08-17T10:39:18.826Z,39.40
2018-08-17T10:41:47.236Z,39.80
2018-08-17T10:44:15.392Z,40.30
2018-08-17T10:46:44.196Z,40.00
2018-08-17T10:49:13.044Z,40.50
2018-08-17T10:51:41.673Z,40.60
2018-08-17T10:54:10.418Z,40.50
2018-08-17T10:56:38.538Z,40.30
2018-08-17T10:59:06.616Z,40.00
2018-08-17T11:01:34.742Z,39.80
2018-08-17T11:04:02.876Z,40.20
2018-08-17T11:06:31.770Z,39.80
2018-08-17T11:09:00.249Z,39.80
2018-08-17T11:11:28.745Z,39.30
2018-08-17T11:13:57.169Z,38.90
2018-08-17T11:16:25.927Z,38.00
2018-08-17T11:18:54.370Z,37.70
2018-08-17T11:21:23.122Z,37.80
2018-08-17T11:23:51.914Z,38.90
2018-08-17T11:26:20.002Z,39.60
2018-08-17T11:28:48.768Z,39.30
2018-08-17T11:31:17.191Z,39.10
2018-08-17T11:33:46.023Z,39.70
2018-08-17T11:36:14.798Z,40.10
2018-08-17T11:38:43.619Z,40.30
2018-08-17T11:41:12.879Z,40.80
2018-08-17T11:43:41.741Z,40.40
2018-08-17T11:46:10.532Z,41.40
2018-08-17T11:48:39.323Z,41.40
2018-08-17T11:51:07.437Z,41.10
2018-08-17T11:53:36.049Z,40.50
2018-08-17T11:56:04.587Z,40.00
2018-08-17T11:58:33.003Z,40.00
2018-08-17T12:01:01.463Z,39.70
2018-08-17T12:03:30.054Z,39.20
2018-08-17T12:05:58.839Z,38.50
2018-08-17T12:08:27.666Z,38.30
2018-08-17T12:11:03.831Z,38.00
2018-08-17T12:13:31.942Z,38.30
2018-08-17T12:16:00.691Z,39.10
2018-08-17T12:18:29.475Z,40.00
2018-08-17T12:20:57.933Z,41.20
2018-08-17T12:23:26.196Z,42.10
2018-08-17T12:25:57.018Z,42.90
2018-08-17T12:28:26.732Z,42.80
2018-08-17T12:30:55.166Z,42.90
2018-08-17T12:33:23.611Z,42.20
2018-08-17T12:35:52.271Z,42.10
2018-08-17T12:38:21.002Z,41.00
2018-08-17T12:40:53.738Z,40.50
2018-08-17T12:43:26.291Z,39.70
2018-08-17T12:45:55.115Z,40.50
2018-08-17T12:48:23.874Z,41.00
2018-08-17T12:50:52.406Z,42.50
2018-08-17T12:53:20.594Z,42.80
2018-08-17T12:55:49.022Z,42.40
2018-08-17T12:58:17.823Z,43.20
2018-08-17T13:00:46.237Z,42.80
2018-08-17T13:03:15.035Z,40.70
2018-08-17T13:05:43.470Z,38.80
2018-08-17T13:08:11.601Z,38.80
2018-08-17T13:10:39.683Z,39.80
2018-08-17T13:13:09.447Z,40.00
2018-08-17T13:15:40.122Z,39.40
2018-08-17T13:18:14.653Z,38.50
2018-08-17T13:20:43.570Z,37.50
2018-08-17T13:23:12.573Z,38.20
2018-08-17T13:25:42.138Z,39.00
2018-08-17T13:28:10.965Z,40.10
2018-08-17T13:30:39.473Z,40.90
2018-08-17T13:33:07.630Z,41.30
2018-08-17T13:35:35.803Z,41.50
2018-08-17T13:38:03.989Z,42.20
2018-08-17T13:40:32.728Z,42.20
2018-08-17T13:43:00.835Z,42.30
2018-08-17T13:45:29.670Z,42.90
2018-08-17T13:47:58.511Z,42.60
2018-08-17T13:50:26.658Z,42.60
2018-08-17T13:52:55.187Z,41.70
2018-08-17T13:55:23.288Z,39.40
2018-08-17T13:57:51.897Z,38.50
2018-08-17T14:00:20.363Z,39.00
2018-08-17T14:02:48.840Z,39.80
2018-08-17T14:05:17.575Z,40.20
2018-08-17T14:07:46.402Z,40.60
2018-08-17T14:10:14.802Z,40.60
2018-08-17T14:12:43.644Z,40.70
2018-08-17T14:15:11.721Z,41.30
2018-08-17T14:17:40.146Z,40.90
2018-08-17T14:20:12.878Z,40.30
2018-08-17T14:22:41.541Z,39.80
2018-08-17T14:25:10.483Z,38.70
2018-08-17T14:27:38.595Z,38.50
2018-08-17T14:30:16.145Z,39.30
2018-08-17T14:32:44.742Z,39.80
2018-08-17T14:35:13.565Z,39.60
2018-08-17T14:37:42.192Z,39.60
2018-08-17T14:40:10.827Z,39.60
2018-08-17T14:42:39.971Z,39.50
2018-08-17T14:45:09.364Z,38.90
2018-08-17T14:47:37.844Z,38.00
2018-08-17T14:50:08.385Z,37.20
2018-08-17T14:52:36.830Z,36.70
2018-08-17T14:55:04.954Z,36.10
2018-08-17T14:57:33.788Z,35.70
2018-08-17T15:00:03.785Z,35.50
2018-08-17T15:02:32.587Z,35.20
2018-08-17T15:05:01.310Z,35.00
2018-08-17T15:07:29.769Z,35.00
2018-08-17T15:09:58.572Z,34.90
2018-08-17T15:12:27.622Z,34.90
2018-08-17T15:14:55.761Z,34.80
2018-08-17T15:17:24.538Z,34.70
2018-08-17T15:19:53.343Z,34.60
2018-08-17T15:22:22.275Z,34.60
2018-08-17T15:24:50.755Z,34.60
2018-08-17T15:27:19.130Z,34.50
2018-08-17T15:29:47.606Z,34.30
2018-08-17T15:32:15.985Z,34.10
2018-08-17T15:34:44.811Z,33.90
2018-08-17T15:37:12.918Z,33.90
2018-08-17T15:39:41.691Z,34.00
2018-08-17T15:42:10.156Z,34.00
2018-08-17T15:44:38.597Z,33.90
2018-08-17T15:47:06.849Z,33.90
2018-08-17T15:49:36.450Z,33.70
2018-08-17T15:52:05.923Z,33.60
2018-08-17T15:54:34.606Z,33.60
2018-08-17T15:57:03.009Z,33.50
2018-08-17T15:59:31.155Z,33.60
2018-08-17T16:01:59.202Z,33.50
2018-08-17T16:04:27.947Z,33.50
2018-08-17T16:06:56.405Z,33.20
2018-08-17T16:09:24.872Z,33.00
2018-08-17T16:11:53.729Z,32.90
2018-08-17T16:14:22.503Z,32.80
2018-08-17T16:16:51.281Z,32.80
2018-08-17T16:19:19.385Z,32.60
2018-08-17T16:21:48.282Z,32.40
2018-08-17T16:24:16.777Z,32.20
2018-08-17T16:26:44.870Z,32.20
2018-08-17T16:29:13.639Z,32.00
2018-08-17T16:31:42.636Z,32.00
2018-08-17T16:34:11.061Z,32.10
2018-08-17T16:36:41.005Z,32.10
2018-08-17T16:39:13.841Z,32.00
2018-08-17T16:41:41.968Z,31.90
2018-08-17T16:44:10.578Z,31.80
2018-08-17T16:46:40.472Z,31.70
2018-08-17T16:49:08.740Z,31.60
2018-08-17T16:51:37.013Z,31.50
2018-08-17T16:54:05.211Z,31.40
2018-08-17T16:56:34.023Z,31.20
2018-08-17T16:59:03.003Z,31.00
2018-08-17T17:01:31.786Z,30.90
2018-08-17T17:04:00.567Z,30.80
2018-08-17T17:06:29.416Z,30.70
2018-08-17T17:08:59.448Z,30.70
2018-08-17T17:11:28.251Z,30.50
2018-08-17T17:13:56.723Z,30.40
2018-08-17T17:16:34.028Z,30.30
2018-08-17T17:19:02.243Z,30.10
2018-08-17T17:21:31.020Z,30.00
2018-08-17T17:24:00.192Z,29.90
2018-08-17T17:26:28.676Z,29.90
2018-08-17T17:28:57.450Z,29.70
2018-08-17T17:31:26.189Z,29.60
2018-08-17T17:33:54.604Z,29.50
2018-08-17T17:36:23.260Z,29.20
2018-08-17T17:38:52.058Z,29.10
2018-08-17T17:41:20.491Z,29.00
2018-08-17T17:43:49.245Z,29.00
2018-08-17T17:46:17.650Z,28.90
2018-08-17T17:48:46.484Z,28.80
2018-08-17T17:51:14.983Z,28.70
2018-08-17T17:53:43.121Z,28.60
2018-08-17T17:56:11.676Z,28.50
2018-08-17T17:58:40.438Z,28.40
2018-08-17T18:01:10.207Z,28.20
2018-08-17T18:03:39.692Z,28.20
2018-08-17T18:06:08.754Z,28.10
2018-08-17T18:08:37.239Z,28.10
2018-08-17T18:11:05.703Z,27.90
2018-08-17T18:13:34.504Z,27.80
2018-08-17T18:16:02.977Z,27.70
2018-08-17T18:18:31.222Z,27.70
2018-08-17T18:20:59.404Z,27.60
2018-08-17T18:23:27.858Z,27.50
2018-08-17T18:25:56.333Z,27.40
2018-08-17T18:28:24.760Z,27.30
2018-08-17T18:30:52.980Z,27.30
2018-08-17T18:33:21.513Z,27.20
2018-08-17T18:35:50.321Z,27.10
2018-08-17T18:38:19.364Z,27.00
2018-08-17T18:40:47.478Z,26.90
2018-08-17T18:43:16.216Z,26.80
2018-08-17T18:45:44.743Z,26.80
2018-08-17T18:48:13.519Z,26.70
2018-08-17T18:50:42.157Z,26.70
2018-08-17T18:53:10.604Z,26.60
2018-08-17T18:55:39.323Z,26.50
2018-08-17T18:58:08.041Z,26.30
2018-08-17T19:00:36.506Z,26.20
2018-08-17T19:03:04.695Z,26.20
2018-08-17T19:05:33.105Z,26.20
2018-08-17T19:08:01.858Z,26.00
2018-08-17T19:10:30.777Z,25.80
2018-08-17T19:12:59.963Z,25.80
2018-08-17T19:15:28.003Z,25.80
2018-08-17T19:17:56.694Z,25.60
2018-08-17T19:20:24.799Z,25.60
2018-08-17T19:22:53.689Z,25.60
2018-08-17T19:25:22.105Z,25.50
2018-08-17T19:27:50.545Z,25.40
2018-08-17T19:30:26.231Z,25.30
2018-08-17T19:32:55.918Z,25.30
2018-08-17T19:35:24.754Z,25.10
2018-08-17T19:37:53.267Z,25.10
2018-08-17T19:40:22.601Z,25.10
2018-08-17T19:42:51.061Z,25.00
2018-08-17T19:45:19.671Z,24.90
2018-08-17T19:47:48.491Z,24.90
2018-08-17T19:50:16.879Z,24.80
2018-08-17T19:52:45.311Z,24.70
2018-08-17T19:55:13.650Z,24.70
2018-08-17T19:57:42.462Z,24.70
2018-08-17T20:00:11.856Z,24.70
2018-08-17T20:02:40.283Z,24.70
2018-08-17T20:05:08.518Z,24.70
2018-08-17T20:07:37.879Z,24.70
2018-08-17T20:10:07.202Z,24.70
2018-08-17T20:12:35.240Z,24.50
2018-08-17T20:15:05.163Z,24.60
2018-08-17T20:17:33.659Z,24.50
2018-08-17T20:20:02.083Z,24.50
2018-08-17T20:22:30.523Z,24.50
2018-08-17T20:24:58.613Z,24.20
2018-08-17T20:27:26.734Z,24.10
2018-08-17T20:30:00.432Z,24.10
2018-08-17T20:32:28.870Z,24.00
2018-08-17T20:34:56.991Z,23.90
2018-08-17T20:37:25.816Z,23.90
2018-08-17T20:39:54.257Z,23.90
2018-08-17T20:42:22.996Z,23.90
2018-08-17T20:44:51.819Z,23.90
2018-08-17T20:47:20.192Z,23.80
2018-08-17T20:49:48.629Z,23.90
2018-08-17T20:52:17.033Z,23.90
2018-08-17T20:54:45.779Z,23.80
2018-08-17T20:57:14.225Z,23.70
2018-08-17T20:59:42.983Z,23.80
2018-08-17T21:02:12.101Z,23.70
2018-08-17T21:04:40.889Z,23.70
2018-08-17T21:07:09.359Z,23.60
2018-08-17T21:09:38.396Z,23.60
2018-08-17T21:12:07.178Z,23.60
2018-08-17T21:14:36.282Z,23.60
2018-08-17T21:17:04.995Z,23.60
2018-08-17T21:19:39.150Z,23.50
2018-08-17T21:22:07.839Z,23.40
2018-08-17T21:24:37.036Z,23.20
2018-08-17T21:27:05.603Z,23.20
2018-08-17T21:29:34.177Z,23.20
2018-08-17T21:32:02.812Z,23.30
2018-08-17T21:34:32.393Z,23.20
2018-08-17T21:37:01.206Z,23.20
2018-08-17T21:39:29.675Z,23.00
2018-08-17T21:41:58.126Z,23.00
2018-08-17T21:44:26.617Z,23.00
2018-08-17T21:47:00.820Z,23.00
2018-08-17T21:49:29.624Z,23.00
2018-08-17T21:52:01.159Z,23.00
2018-08-17T21:54:32.392Z,23.00
2018-08-17T21:57:01.654Z,22.90
2018-08-17T21:59:35.715Z,22.90
2018-08-17T22:02:05.219Z,22.80
2018-08-17T22:04:33.935Z,22.70
2018-08-17T22:07:05.839Z,22.60
2018-08-17T22:09:37.931Z,22.60
2018-08-17T22:12:07.101Z,22.50
2018-08-17T22:14:35.240Z,22.60
2018-08-17T22:19:55.050Z,22.40
2018-08-17T22:22:23.524Z,22.30
2018-08-17T22:24:52.644Z,22.10
2018-08-17T22:27:21.441Z,22.20
2018-08-17T22:29:51.184Z,22.20
2018-08-17T22:32:20.252Z,22.20
2018-08-17T22:34:48.679Z,22.20
2018-08-17T22:37:16.899Z,22.10
2018-08-17T22:39:45.085Z,22.20
2018-08-17T22:42:14.145Z,22.20
2018-08-17T22:44:42.801Z,22.10
2018-08-17T22:47:21.703Z,22.30
2018-08-17T22:49:51.045Z,22.30
2018-08-17T22:52:19.238Z,22.30
2018-08-17T22:54:56.194Z,22.20
2018-08-17T22:57:25.464Z,22.20
2018-08-17T23:00:10.100Z,22.20
2018-08-17T23:02:39.238Z,22.10
2018-08-17T23:05:10.616Z,22.10
2018-08-17T23:07:39.846Z,22.10
2018-08-17T23:10:13.148Z,22.10
2018-08-17T23:12:42.437Z,21.90
2018-08-17T23:15:12.342Z,21.80
2018-08-17T23:17:42.041Z,21.70
2018-08-17T23:20:10.287Z,21.70
2018-08-17T23:22:45.143Z,21.70
2018-08-17T23:25:13.922Z,21.70
2018-08-17T23:27:43.204Z,21.70
2018-08-17T23:30:11.808Z,21.80
2018-08-17T23:32:40.606Z,21.70
2018-08-17T23:35:09.092Z,21.60
2018-08-17T23:37:38.228Z,21.50
2018-08-17T23:40:07.718Z,21.50
2018-08-17T23:42:36.787Z,21.50
2018-08-17T23:45:06.230Z,21.50
2018-08-17T23:47:34.657Z,21.50
2018-08-17T23:50:03.548Z,21.50
2018-08-17T23:52:32.218Z,21.50
2018-08-17T23:55:01.112Z,21.50
2018-08-17T23:57:29.829Z,21.60
2018-08-17T23:59:58.944Z,21.50
